Time;durP1;ratioP1;P1;durP2;ratioP2;P2;SDS_P1;SDS_P2;PMS_P1;PMS_P2;Temp;Humidity;BMP_temperature;BMP_pressure;BME280_temperature;BME280_humidity;BME280_pressure;Samples;Min_cycle;Max_cycle;Signal;HPM_P1;HPM_P2
2021/12/23 00:00:11;;;;;;;0.70;0.70;;;;;;;;;;4978926;28;20198;-61
2021/12/23 00:02:38;;;;;;;0.60;0.60;;;;;;;;;;4969241;28;20175;-61
2021/12/23 00:05:05;;;;;;;0.60;0.60;;;;;;;;;;4963093;28;20273;-61
2021/12/23 00:07:31;;;;;;;0.70;0.70;;;;;;;;;;4964202;28;20207;-62
2021/12/23 00:10:06;;;;;;;0.70;0.70;;;;;;;;;;4982473;28;20789;-62
2021/12/23 00:12:32;;;;;;;0.60;0.60;;;;;;;;;;4963948;28;20773;-61
2021/12/23 00:14:58;;;;;;;0.60;0.60;;;;;;;;;;4963481;28;20183;-60
2021/12/23 00:17:54;;;;;;;0.70;0.70;;;;;;;;;;4962187;28;20352;-63
2021/12/23 00:25:35;;;;;;;0.70;0.70;;;;;;;;;;4964356;28;20253;-60
2021/12/23 00:28:01;;;;;;;0.65;0.65;;;;;;;;;;4963435;28;20199;-60
2021/12/23 00:30:27;;;;;;;0.60;0.60;;;;;;;;;;4977730;28;20684;-61
2021/12/23 00:32:55;;;;;;;0.70;0.70;;;;;;;;;;4965726;28;20922;-62
2021/12/23 00:35:21;;;;;;;0.60;0.60;;;;;;;;;;4978948;28;20186;-62
2021/12/23 00:37:50;;;;;;;0.70;0.70;;;;;;;;;;4968640;28;20288;-59
2021/12/23 00:40:17;;;;;;;0.80;0.80;;;;;;;;;;4962182;28;20181;-61
2021/12/23 00:42:43;;;;;;;0.60;0.60;;;;;;;;;;4962351;28;20525;-61
2021/12/23 00:45:09;;;;;;;0.70;0.70;;;;;;;;;;4962142;28;20176;-61
2021/12/23 00:47:35;;;;;;;0.70;0.70;;;;;;;;;;4963042;28;20462;-60
2021/12/23 00:50:01;;;;;;;0.60;0.60;;;;;;;;;;4965177;28;20179;-60
2021/12/23 00:52:39;;;;;;;0.60;0.60;;;;;;;;;;4963189;28;20175;-60
2021/12/23 00:55:06;;;;;;;0.70;0.70;;;;;;;;;;4963682;28;20210;-61
2021/12/23 00:57:37;;;;;;;0.70;0.70;;;;;;;;;;4963721;28;20214;-60
2021/12/23 01:00:09;;;;;;;0.70;0.70;;;;;;;;;;4976627;28;20228;-54
2021/12/23 01:02:35;;;;;;;0.68;0.68;;;;;;;;;;4977859;28;20237;-61
2021/12/23 01:05:02;;;;;;;0.60;0.60;;;;;;;;;;4963355;28;20214;-61
2021/12/23 01:07:29;;;;;;;0.70;0.70;;;;;;;;;;4961731;28;20200;-61
2021/12/23 01:09:54;;;;;;;0.70;0.70;;;;;;;;;;4963241;28;20654;-59
2021/12/23 01:12:26;;;;;;;0.70;0.70;;;;;;;;;;4962546;28;20179;-60
2021/12/23 01:15:11;;;;;;;0.70;0.70;;;;;;;;;;4963836;28;20786;-61
2021/12/23 01:17:59;;;;;;;0.70;0.70;;;;;;;;;;4962724;28;20223;-62
2021/12/23 01:20:28;;;;;;;0.60;0.60;;;;;;;;;;4977825;28;20187;-61
2021/12/23 01:22:58;;;;;;;0.70;0.70;;;;;;;;;;4963581;28;20174;-61
2021/12/23 01:25:25;;;;;;;0.60;0.60;;;;;;;;;;4963563;28;20184;-62
2021/12/23 01:27:52;;;;;;;0.60;0.60;;;;;;;;;;4962327;28;20247;-62
2021/12/23 01:30:18;;;;;;;0.60;0.60;;;;;;;;;;4962787;28;20179;-62
2021/12/23 01:32:48;;;;;;;0.60;0.60;;;;;;;;;;4961891;28;20311;-62
2021/12/23 01:35:15;;;;;;;0.60;0.60;;;;;;;;;;4977142;28;20325;-62
2021/12/23 01:37:41;;;;;;;0.60;0.60;;;;;;;;;;4963339;28;20280;-60
2021/12/23 01:40:08;;;;;;;0.60;0.60;;;;;;;;;;4961713;28;20547;-62
2021/12/23 01:42:35;;;;;;;0.60;0.60;;;;;;;;;;4962182;28;20237;-62
2021/12/23 01:45:01;;;;;;;0.70;0.70;;;;;;;;;;4979095;28;20171;-62
2021/12/23 01:47:29;;;;;;;0.65;0.65;;;;;;;;;;4976774;28;20215;-62
2021/12/23 01:49:55;;;;;;;0.50;0.50;;;;;;;;;;4961999;28;20703;-61
2021/12/23 01:52:21;;;;;;;0.60;0.60;;;;;;;;;;4979589;28;20182;-63
2021/12/23 01:54:50;;;;;;;0.60;0.60;;;;;;;;;;4965695;28;20179;-62
2021/12/23 01:57:17;;;;;;;0.60;0.60;;;;;;;;;;4965095;28;20497;-60
2021/12/23 01:59:43;;;;;;;0.60;0.60;;;;;;;;;;4979501;22;20239;-65
2021/12/23 02:02:09;;;;;;;0.60;0.60;;;;;;;;;;4954012;28;20179;-62
2021/12/23 02:04:35;;;;;;;0.60;0.60;;;;;;;;;;4956066;28;20195;-62
2021/12/23 02:07:01;;;;;;;0.60;0.60;;;;;;;;;;4955826;28;20222;-63
2021/12/23 02:09:27;;;;;;;0.60;0.60;;;;;;;;;;4954693;28;20438;-61
2021/12/23 02:11:53;;;;;;;0.60;0.60;;;;;;;;;;4955125;28;20490;-63
2021/12/23 02:14:20;;;;;;;0.60;0.60;;;;;;;;;;4955584;28;20481;-61
2021/12/23 02:16:46;;;;;;;0.60;0.60;;;;;;;;;;4955715;28;20190;-61
2021/12/23 02:19:19;;;;;;;0.70;0.70;;;;;;;;;;4955721;28;20667;-62
2021/12/23 02:21:45;;;;;;;0.60;0.60;;;;;;;;;;4950843;29;20202;-64
2021/12/23 02:24:12;;;;;;;0.70;0.70;;;;;;;;;;4955684;28;20622;-62
2021/12/23 02:26:38;;;;;;;0.70;0.70;;;;;;;;;;4955547;28;20680;-61
2021/12/23 02:29:04;;;;;;;0.70;0.70;;;;;;;;;;4955597;28;20187;-63
2021/12/23 02:31:30;;;;;;;0.60;0.60;;;;;;;;;;4954829;28;20206;-61
2021/12/23 02:33:57;;;;;;;0.60;0.60;;;;;;;;;;4954243;28;20179;-63
2021/12/23 02:36:23;;;;;;;0.60;0.60;;;;;;;;;;4955292;28;20216;-65
2021/12/23 02:38:49;;;;;;;0.70;0.70;;;;;;;;;;4955519;28;20207;-60
2021/12/23 02:41:15;;;;;;;0.63;0.63;;;;;;;;;;4952772;28;20235;-62
2021/12/23 02:43:41;;;;;;;0.70;0.70;;;;;;;;;;4955402;28;20187;-63
2021/12/23 02:46:07;;;;;;;0.70;0.70;;;;;;;;;;4955304;28;20420;-62
2021/12/23 02:48:34;;;;;;;0.77;0.77;;;;;;;;;;4955379;28;20186;-62
2021/12/23 02:51:01;;;;;;;0.50;0.50;;;;;;;;;;4954476;28;20439;-63
2021/12/23 02:53:27;;;;;;;0.60;0.60;;;;;;;;;;4954056;29;20184;-62
2021/12/23 02:55:54;;;;;;;0.60;0.60;;;;;;;;;;4955137;28;20179;-63
2021/12/23 02:58:21;;;;;;;0.60;0.60;;;;;;;;;;4954991;28;20253;-62
2021/12/23 03:00:51;;;;;;;0.60;0.60;;;;;;;;;;4953045;28;20210;-65
2021/12/23 03:03:17;;;;;;;0.60;0.60;;;;;;;;;;4954641;28;20214;-63
2021/12/23 03:05:47;;;;;;;0.60;0.60;;;;;;;;;;4954195;29;20176;-63
2021/12/23 03:08:13;;;;;;;0.60;0.60;;;;;;;;;;4957421;28;20196;-63
2021/12/23 03:10:39;;;;;;;0.50;0.50;;;;;;;;;;4968836;28;20203;-63
2021/12/23 03:13:05;;;;;;;0.60;0.60;;;;;;;;;;4967903;28;20416;-63
2021/12/23 03:15:31;;;;;;;0.60;0.60;;;;;;;;;;4960034;28;20791;-60
2021/12/23 03:17:56;;;;;;;0.60;0.60;;;;;;;;;;4955644;28;20523;-63
2021/12/23 03:20:22;;;;;;;0.70;0.70;;;;;;;;;;4954369;28;20513;-63
2021/12/23 03:22:48;;;;;;;0.50;0.50;;;;;;;;;;4954611;28;20654;-64
2021/12/23 03:25:14;;;;;;;0.50;0.50;;;;;;;;;;4953764;28;20418;-63
2021/12/23 03:27:40;;;;;;;0.52;0.52;;;;;;;;;;4954436;28;20221;-60
2021/12/23 03:30:07;;;;;;;0.50;0.50;;;;;;;;;;4954173;28;20207;-62
2021/12/23 03:32:33;;;;;;;0.60;0.60;;;;;;;;;;4953149;28;20569;-62
2021/12/23 03:34:59;;;;;;;0.60;0.60;;;;;;;;;;4954686;28;20202;-68
2021/12/23 03:37:25;;;;;;;0.60;0.60;;;;;;;;;;4954535;28;20266;-64
2021/12/23 03:39:53;;;;;;;0.60;0.60;;;;;;;;;;4954766;28;20218;-63
2021/12/23 03:42:19;;;;;;;0.60;0.60;;;;;;;;;;4954001;28;20186;-62
2021/12/23 03:44:45;;;;;;;0.60;0.60;;;;;;;;;;4954635;28;20195;-64
2021/12/23 03:47:11;;;;;;;0.60;0.60;;;;;;;;;;4953037;28;20204;-63
2021/12/23 03:49:37;;;;;;;0.50;0.50;;;;;;;;;;4954510;28;20184;-62
2021/12/23 03:52:03;;;;;;;0.60;0.60;;;;;;;;;;4953784;28;20469;-61
2021/12/23 03:54:29;;;;;;;0.60;0.60;;;;;;;;;;4954254;28;20424;-62
2021/12/23 03:56:55;;;;;;;0.55;0.55;;;;;;;;;;4952807;28;20271;-62
2021/12/23 03:59:21;;;;;;;0.60;0.60;;;;;;;;;;4953894;28;20659;-63
2021/12/23 04:01:47;;;;;;;0.60;0.60;;;;;;;;;;4953216;28;20194;-62
2021/12/23 04:04:13;;;;;;;0.67;0.67;;;;;;;;;;4953919;28;20452;-64
2021/12/23 04:06:39;;;;;;;0.63;0.63;;;;;;;;;;4952315;28;20460;-62
2021/12/23 04:09:05;;;;;;;0.60;0.60;;;;;;;;;;4950073;29;20179;-64
2021/12/23 04:11:31;;;;;;;0.60;0.60;;;;;;;;;;4953054;28;20211;-63
2021/12/23 04:13:58;;;;;;;0.52;0.52;;;;;;;;;;4953285;28;20198;-62
2021/12/23 04:16:24;;;;;;;0.50;0.50;;;;;;;;;;4952196;28;20183;-62
2021/12/23 04:18:51;;;;;;;0.60;0.60;;;;;;;;;;4953705;28;20199;-63
2021/12/23 04:21:18;;;;;;;0.60;0.60;;;;;;;;;;4952838;28;20203;-62
2021/12/23 04:23:44;;;;;;;0.60;0.60;;;;;;;;;;4953244;28;20657;-63
2021/12/23 04:26:10;;;;;;;0.70;0.70;;;;;;;;;;4953240;28;20185;-62
2021/12/23 04:28:45;;;;;;;0.60;0.60;;;;;;;;;;4953618;28;20262;-61
2021/12/23 04:31:12;;;;;;;0.60;0.60;;;;;;;;;;4952755;28;20342;-63
2021/12/23 04:33:38;;;;;;;0.60;0.60;;;;;;;;;;4952194;28;20210;-62
2021/12/23 04:36:04;;;;;;;0.60;0.60;;;;;;;;;;4953357;28;20183;-63
2021/12/23 04:38:30;;;;;;;0.60;0.60;;;;;;;;;;4953356;28;20193;-63
2021/12/23 04:40:56;;;;;;;0.60;0.60;;;;;;;;;;4951360;28;20277;-61
2021/12/23 04:43:21;;;;;;;0.70;0.70;;;;;;;;;;4952038;28;20659;-64
2021/12/23 04:45:47;;;;;;;0.60;0.60;;;;;;;;;;4953216;28;20799;-61
2021/12/23 04:48:13;;;;;;;0.50;0.50;;;;;;;;;;4953039;28;20509;-63
2021/12/23 04:50:39;;;;;;;0.60;0.60;;;;;;;;;;4951285;28;20439;-63
2021/12/23 04:53:05;;;;;;;0.60;0.60;;;;;;;;;;4950828;28;20171;-61
2021/12/23 04:55:31;;;;;;;0.50;0.50;;;;;;;;;;4953174;28;20423;-61
2021/12/23 04:57:58;;;;;;;0.50;0.50;;;;;;;;;;4953159;28;20172;-59
2021/12/23 05:00:24;;;;;;;0.60;0.60;;;;;;;;;;4951031;28;20215;-63
2021/12/23 05:02:50;;;;;;;0.60;0.60;;;;;;;;;;4953128;28;20182;-61
2021/12/23 05:05:16;;;;;;;0.60;0.60;;;;;;;;;;4953067;28;20234;-61
2021/12/23 05:07:42;;;;;;;0.60;0.60;;;;;;;;;;4951735;28;20199;-63
2021/12/23 05:10:09;;;;;;;0.60;0.60;;;;;;;;;;4952847;28;20200;-59
2021/12/23 05:12:42;;;;;;;0.60;0.60;;;;;;;;;;4953300;28;20196;-62
2021/12/23 05:15:09;;;;;;;0.60;0.60;;;;;;;;;;4953516;28;20551;-63
2021/12/23 05:17:35;;;;;;;0.70;0.70;;;;;;;;;;4953400;28;20188;-61
2021/12/23 05:20:01;;;;;;;0.50;0.50;;;;;;;;;;4953328;28;20243;-61
2021/12/23 05:22:26;;;;;;;0.60;0.60;;;;;;;;;;4952762;28;20922;-61
2021/12/23 05:24:52;;;;;;;0.70;0.70;;;;;;;;;;4953413;28;20187;-61
2021/12/23 05:27:18;;;;;;;0.60;0.60;;;;;;;;;;4956713;28;20463;-60
2021/12/23 05:29:44;;;;;;;0.50;0.50;;;;;;;;;;4955893;28;20481;-63
2021/12/23 05:32:10;;;;;;;0.60;0.60;;;;;;;;;;4956401;28;20438;-61
2021/12/23 05:34:36;;;;;;;0.60;0.60;;;;;;;;;;4957008;28;20421;-63
2021/12/23 05:37:02;;;;;;;0.50;0.50;;;;;;;;;;4956919;28;20415;-63
2021/12/23 05:39:28;;;;;;;0.60;0.60;;;;;;;;;;4956800;28;20446;-63
2021/12/23 05:41:54;;;;;;;0.60;0.60;;;;;;;;;;4956308;28;20214;-63
2021/12/23 05:44:20;;;;;;;0.60;0.60;;;;;;;;;;4956806;28;20407;-62
2021/12/23 05:46:46;;;;;;;0.60;0.60;;;;;;;;;;4956653;28;20202;-63
2021/12/23 05:49:12;;;;;;;0.60;0.60;;;;;;;;;;4956790;28;20438;-61
2021/12/23 05:51:39;;;;;;;0.60;0.60;;;;;;;;;;4955977;28;20451;-62
2021/12/23 05:54:05;;;;;;;0.57;0.57;;;;;;;;;;4956738;28;20174;-62
2021/12/23 05:56:31;;;;;;;0.70;0.70;;;;;;;;;;4956609;28;20254;-64
2021/12/23 05:58:57;;;;;;;0.60;0.60;;;;;;;;;;4956624;28;20183;-62
2021/12/23 06:01:23;;;;;;;0.60;0.60;;;;;;;;;;4955589;28;20276;-63
2021/12/23 06:03:49;;;;;;;0.60;0.60;;;;;;;;;;4956612;28;20254;-65
2021/12/23 06:06:15;;;;;;;0.60;0.60;;;;;;;;;;4956306;28;20422;-65
2021/12/23 06:08:41;;;;;;;0.50;0.50;;;;;;;;;;4956380;28;20453;-62
2021/12/23 06:11:08;;;;;;;0.60;0.60;;;;;;;;;;4955589;28;20250;-63
2021/12/23 06:13:34;;;;;;;0.50;0.50;;;;;;;;;;4956251;28;20174;-60
2021/12/23 06:16:00;;;;;;;0.60;0.60;;;;;;;;;;4956273;28;20202;-62
2021/12/23 06:18:26;;;;;;;0.60;0.60;;;;;;;;;;4956194;28;20707;-59
2021/12/23 06:20:52;;;;;;;0.60;0.60;;;;;;;;;;4955423;28;20431;-61
2021/12/23 06:23:18;;;;;;;0.50;0.50;;;;;;;;;;4956211;28;20477;-62
2021/12/23 06:25:44;;;;;;;0.60;0.60;;;;;;;;;;4956197;28;20425;-62
2021/12/23 06:28:10;;;;;;;0.60;0.60;;;;;;;;;;4955959;28;20879;-61
2021/12/23 06:30:36;;;;;;;0.60;0.60;;;;;;;;;;4955369;28;20200;-62
2021/12/23 06:33:02;;;;;;;0.50;0.50;;;;;;;;;;4954753;28;20206;-64
2021/12/23 06:35:29;;;;;;;0.50;0.50;;;;;;;;;;4955882;28;20418;-63
2021/12/23 06:37:55;;;;;;;0.63;0.63;;;;;;;;;;4955059;28;20426;-63
2021/12/23 06:40:22;;;;;;;0.60;0.60;;;;;;;;;;4955047;28;20302;-61
2021/12/23 06:42:47;;;;;;;0.63;0.63;;;;;;;;;;4955740;28;20207;-63
2021/12/23 06:45:14;;;;;;;0.60;0.60;;;;;;;;;;4955813;28;20210;-63
2021/12/23 06:47:41;;;;;;;0.60;0.60;;;;;;;;;;4955633;28;20459;-61
2021/12/23 06:50:07;;;;;;;0.50;0.50;;;;;;;;;;4955114;28;20270;-62
2021/12/23 06:52:34;;;;;;;0.70;0.70;;;;;;;;;;4955477;28;20546;-62
2021/12/23 06:55:00;;;;;;;0.50;0.50;;;;;;;;;;4955577;28;20184;-63
2021/12/23 06:57:27;;;;;;;0.50;0.50;;;;;;;;;;4955298;28;20186;-62
2021/12/23 06:59:53;;;;;;;0.50;0.50;;;;;;;;;;4955414;28;20614;-62
2021/12/23 07:02:19;;;;;;;0.60;0.60;;;;;;;;;;4954811;28;20179;-62
2021/12/23 07:04:45;;;;;;;0.50;0.50;;;;;;;;;;4955459;28;20178;-63
2021/12/23 07:07:19;;;;;;;0.60;0.60;;;;;;;;;;4955281;28;20291;-61
2021/12/23 07:09:45;;;;;;;0.60;0.60;;;;;;;;;;4955456;28;20257;-62
2021/12/23 07:12:12;;;;;;;0.60;0.60;;;;;;;;;;4954581;28;20178;-61
2021/12/23 07:14:39;;;;;;;0.50;0.50;;;;;;;;;;4955228;28;20173;-62
2021/12/23 07:17:07;;;;;;;0.50;0.50;;;;;;;;;;4955112;28;20191;-63
2021/12/23 07:19:33;;;;;;;0.50;0.50;;;;;;;;;;4955137;28;20599;-61
2021/12/23 07:21:59;;;;;;;0.60;0.60;;;;;;;;;;4950432;28;20187;-63
2021/12/23 07:24:25;;;;;;;0.60;0.60;;;;;;;;;;4953905;28;20922;-62
2021/12/23 07:26:51;;;;;;;0.50;0.50;;;;;;;;;;4954038;28;20465;-61
2021/12/23 07:29:17;;;;;;;0.60;0.60;;;;;;;;;;4954912;28;20179;-59
2021/12/23 07:31:43;;;;;;;0.60;0.60;;;;;;;;;;4954074;28;20651;-61
2021/12/23 07:34:08;;;;;;;0.50;0.50;;;;;;;;;;4954873;28;20186;-63
2021/12/23 07:36:35;;;;;;;0.50;0.50;;;;;;;;;;4951896;29;20902;-63
2021/12/23 07:39:01;;;;;;;0.50;0.50;;;;;;;;;;4954696;28;20448;-62
2021/12/23 07:41:27;;;;;;;0.57;0.57;;;;;;;;;;4953810;28;20198;-62
2021/12/23 07:46:22;;;;;;;0.60;0.60;;;;;;;;;;4954220;28;20286;-62
2021/12/23 07:48:48;;;;;;;0.50;0.50;;;;;;;;;;4952554;28;20315;-60
2021/12/23 07:51:14;;;;;;;0.50;0.50;;;;;;;;;;4953693;28;20668;-61
2021/12/23 07:53:40;;;;;;;0.50;0.50;;;;;;;;;;4954738;28;21124;-63
2021/12/23 07:56:06;;;;;;;0.50;0.50;;;;;;;;;;4954289;28;20915;-60
2021/12/23 07:58:32;;;;;;;0.50;0.50;;;;;;;;;;4953057;28;20941;-62
2021/12/23 08:00:58;;;;;;;0.50;0.50;;;;;;;;;;4982128;23;20539;-62
2021/12/23 08:03:24;;;;;;;0.70;0.70;;;;;;;;;;4992602;28;20182;-62
2021/12/23 08:05:52;;;;;;;0.55;0.55;;;;;;;;;;4992725;28;20721;-61
2021/12/23 08:08:18;;;;;;;0.40;0.40;;;;;;;;;;4991044;28;20221;-62
2021/12/23 08:10:44;;;;;;;0.57;0.57;;;;;;;;;;4982259;28;20201;-62
2021/12/23 08:13:10;;;;;;;0.60;0.60;;;;;;;;;;4992716;28;20261;-62
2021/12/23 08:15:36;;;;;;;0.50;0.50;;;;;;;;;;4976700;28;20411;-62
2021/12/23 08:18:02;;;;;;;0.60;0.60;;;;;;;;;;4973433;28;20242;-62
2021/12/23 08:20:28;;;;;;;0.55;0.55;;;;;;;;;;4972637;28;20441;-60
2021/12/23 08:22:54;;;;;;;0.60;0.60;;;;;;;;;;4973321;28;20186;-63
2021/12/23 08:25:22;;;;;;;0.60;0.60;;;;;;;;;;4991334;28;20417;-62
2021/12/23 08:27:48;;;;;;;0.60;0.60;;;;;;;;;;4981975;28;20729;-62
2021/12/23 08:30:17;;;;;;;0.57;0.57;;;;;;;;;;4972159;28;20694;-62
2021/12/23 08:32:43;;;;;;;0.57;0.57;;;;;;;;;;4972280;28;20249;-62
2021/12/23 08:35:09;;;;;;;0.50;0.50;;;;;;;;;;4971612;28;20234;-62
2021/12/23 08:37:36;;;;;;;0.50;0.50;;;;;;;;;;4972681;28;20442;-62
2021/12/23 08:40:02;;;;;;;0.60;0.60;;;;;;;;;;4972789;28;20174;-62
2021/12/23 08:42:28;;;;;;;0.50;0.50;;;;;;;;;;4972940;28;20179;-62
2021/12/23 08:44:54;;;;;;;0.50;0.50;;;;;;;;;;4973206;28;20548;-62
2021/12/23 08:47:20;;;;;;;0.50;0.50;;;;;;;;;;4969268;28;20207;-62
2021/12/23 08:49:46;;;;;;;0.60;0.60;;;;;;;;;;4967101;28;21082;-62
2021/12/23 08:52:13;;;;;;;0.60;0.60;;;;;;;;;;4968976;28;20227;-62
2021/12/23 08:54:41;;;;;;;0.60;0.60;;;;;;;;;;4971894;28;20672;-62
2021/12/23 08:57:07;;;;;;;0.50;0.50;;;;;;;;;;4970315;28;20187;-62
2021/12/23 08:59:33;;;;;;;0.50;0.50;;;;;;;;;;4970688;28;20186;-62
2021/12/23 09:01:59;;;;;;;0.50;0.50;;;;;;;;;;4964915;28;20477;-60
2021/12/23 09:04:25;;;;;;;0.60;0.60;;;;;;;;;;4972132;28;20191;-57
2021/12/23 09:06:52;;;;;;;0.60;0.60;;;;;;;;;;4972171;28;20253;-59
2021/12/23 09:09:18;;;;;;;0.50;0.50;;;;;;;;;;4972465;28;20271;-60
2021/12/23 09:11:44;;;;;;;0.60;0.60;;;;;;;;;;4970455;28;20738;-61
2021/12/23 09:14:10;;;;;;;0.60;0.60;;;;;;;;;;4972578;28;20178;-62
2021/12/23 09:16:38;;;;;;;0.60;0.60;;;;;;;;;;4969708;28;20713;-62
2021/12/23 09:19:04;;;;;;;0.60;0.60;;;;;;;;;;4971325;28;20638;-61
2021/12/23 09:21:30;;;;;;;0.50;0.50;;;;;;;;;;4969185;28;20203;-60
2021/12/23 09:23:56;;;;;;;0.40;0.40;;;;;;;;;;4969493;28;20431;-61
2021/12/23 09:26:22;;;;;;;0.60;0.60;;;;;;;;;;4985797;28;20440;-58
2021/12/23 09:34:02;;;;;;;0.70;0.70;;;;;;;;;;4971997;28;20194;-60
2021/12/23 09:36:28;;;;;;;0.50;0.50;;;;;;;;;;4971484;28;20184;-60
2021/12/23 09:38:54;;;;;;;0.50;0.50;;;;;;;;;;4972776;28;20187;-60
2021/12/23 09:41:21;;;;;;;0.50;0.50;;;;;;;;;;4972088;28;20522;-59
2021/12/23 09:43:48;;;;;;;0.60;0.60;;;;;;;;;;4973767;28;20182;-60
2021/12/23 09:46:16;;;;;;;0.43;0.43;;;;;;;;;;4972980;28;20203;-60
2021/12/23 09:48:43;;;;;;;0.50;0.50;;;;;;;;;;4972681;28;20175;-60
2021/12/23 09:51:10;;;;;;;0.40;0.40;;;;;;;;;;4971971;28;20206;-59
2021/12/23 09:53:37;;;;;;;0.50;0.50;;;;;;;;;;4972288;28;20175;-59
2021/12/23 09:56:04;;;;;;;0.50;0.50;;;;;;;;;;4972625;28;20258;-60
2021/12/23 09:58:30;;;;;;;0.50;0.50;;;;;;;;;;4972351;28;20183;-60
2021/12/23 10:00:56;;;;;;;0.50;0.50;;;;;;;;;;4971479;28;20254;-61
2021/12/23 10:03:24;;;;;;;0.60;0.60;;;;;;;;;;4972108;28;20193;-59
2021/12/23 10:05:50;;;;;;;0.50;0.50;;;;;;;;;;4971240;28;20183;-60
2021/12/23 10:08:17;;;;;;;0.50;0.50;;;;;;;;;;4972011;28;20295;-60
2021/12/23 10:10:55;;;;;;;0.50;0.50;;;;;;;;;;4971524;28;20295;-60
2021/12/23 10:27:47;;;;;;;0.50;0.50;;;;;;;;;;4975142;28;20215;-60
2021/12/23 10:38:05;;;;;;;0.50;0.50;;;;;;;;;;4990229;28;20198;-62
2021/12/23 10:40:31;;;;;;;0.50;0.50;;;;;;;;;;4973632;28;20210;-62
2021/12/23 10:42:57;;;;;;;0.50;0.50;;;;;;;;;;4974917;28;20191;-63
2021/12/23 10:45:23;;;;;;;0.47;0.47;;;;;;;;;;4975271;28;20233;-62
2021/12/23 10:50:19;;;;;;;0.50;0.50;;;;;;;;;;4972917;28;20218;-62
2021/12/23 10:52:52;;;;;;;0.40;0.40;;;;;;;;;;4972398;28;20259;-62
2021/12/23 11:00:23;;;;;;;0.50;0.50;;;;;;;;;;4962028;28;20212;-62
2021/12/23 11:03:05;;;;;;;0.50;0.50;;;;;;;;;;4967779;28;20204;-62
2021/12/23 11:05:37;;;;;;;0.50;0.50;;;;;;;;;;4969352;28;20835;-61
2021/12/23 11:08:15;;;;;;;0.52;0.52;;;;;;;;;;4968814;28;20280;-62
2021/12/23 11:27:55;;;;;;;0.50;0.50;;;;;;;;;;4971957;28;20214;-61
2021/12/23 11:38:18;;;;;;;0.50;0.50;;;;;;;;;;4968538;28;20206;-62
2021/12/23 11:45:46;;;;;;;0.40;0.40;;;;;;;;;;4974021;28;20772;-61
2021/12/23 11:48:14;;;;;;;0.50;0.50;;;;;;;;;;4974029;28;20193;-62
2021/12/23 11:50:54;;;;;;;0.50;0.50;;;;;;;;;;4971189;28;20210;-62
2021/12/23 11:53:21;;;;;;;0.40;0.40;;;;;;;;;;4973049;28;20688;-60
2021/12/23 11:55:48;;;;;;;0.50;0.50;;;;;;;;;;4972772;28;20200;-62
2021/12/23 11:58:14;;;;;;;0.40;0.40;;;;;;;;;;4970804;28;20562;-62
2021/12/23 12:00:44;;;;;;;0.40;0.40;;;;;;;;;;4971680;28;20213;-62
2021/12/23 12:03:12;;;;;;;0.50;0.50;;;;;;;;;;4970886;28;20269;-62
2021/12/23 12:05:39;;;;;;;0.45;0.45;;;;;;;;;;4973124;28;20633;-62
2021/12/23 12:08:09;;;;;;;0.50;0.50;;;;;;;;;;4973046;28;20609;-62
2021/12/23 12:10:35;;;;;;;0.50;0.50;;;;;;;;;;4971733;28;20206;-62
2021/12/23 12:13:07;;;;;;;0.40;0.40;;;;;;;;;;4972204;28;20173;-62
2021/12/23 12:15:39;;;;;;;0.50;0.50;;;;;;;;;;4970647;28;20180;-62
2021/12/23 12:18:10;;;;;;;0.50;0.50;;;;;;;;;;4972501;28;20196;-62
2021/12/23 12:20:43;;;;;;;0.50;0.50;;;;;;;;;;4970386;28;20205;-62
2021/12/23 12:23:11;;;;;;;0.50;0.50;;;;;;;;;;4970735;28;20241;-62
2021/12/23 12:25:48;;;;;;;0.40;0.40;;;;;;;;;;4971350;28;20183;-62
2021/12/23 12:28:34;;;;;;;0.40;0.40;;;;;;;;;;4971015;28;20212;-61
2021/12/23 12:31:06;;;;;;;0.50;0.50;;;;;;;;;;4971213;28;20195;-61
2021/12/23 12:33:35;;;;;;;0.50;0.50;;;;;;;;;;4972831;28;20188;-62
2021/12/23 12:36:03;;;;;;;0.50;0.50;;;;;;;;;;4970306;28;20217;-60
2021/12/23 12:38:37;;;;;;;0.50;0.50;;;;;;;;;;4972603;28;20589;-63
2021/12/23 12:41:29;;;;;;;0.50;0.50;;;;;;;;;;4969751;28;20201;-63
2021/12/23 12:46:56;;;;;;;0.50;0.50;;;;;;;;;;4971116;28;20210;-63
2021/12/23 12:49:26;;;;;;;0.50;0.50;;;;;;;;;;4970540;28;20172;-62
2021/12/23 12:51:54;;;;;;;0.40;0.40;;;;;;;;;;4972320;28;20208;-62
2021/12/23 12:54:29;;;;;;;0.45;0.45;;;;;;;;;;4973031;28;20189;-62
2021/12/23 12:56:56;;;;;;;0.50;0.50;;;;;;;;;;4971385;28;20626;-62
2021/12/23 12:59:29;;;;;;;0.40;0.40;;;;;;;;;;4972783;28;20265;-63
2021/12/23 13:01:55;;;;;;;0.40;0.40;;;;;;;;;;4965476;28;20233;-62
2021/12/23 13:04:31;;;;;;;0.50;0.50;;;;;;;;;;4971589;28;20229;-62
2021/12/23 13:06:58;;;;;;;0.50;0.50;;;;;;;;;;4972325;28;20220;-62
2021/12/23 13:09:28;;;;;;;0.50;0.50;;;;;;;;;;4972548;28;20194;-62
2021/12/23 13:11:58;;;;;;;0.40;0.40;;;;;;;;;;4971666;28;20202;-62
2021/12/23 13:14:44;;;;;;;0.50;0.50;;;;;;;;;;4972574;28;20265;-61
2021/12/23 13:17:10;;;;;;;0.50;0.50;;;;;;;;;;4972471;28;20182;-62
2021/12/23 13:19:36;;;;;;;0.50;0.50;;;;;;;;;;4972269;28;20221;-61
2021/12/23 13:22:06;;;;;;;0.50;0.50;;;;;;;;;;4971675;28;20233;-62
2021/12/23 13:24:33;;;;;;;0.40;0.40;;;;;;;;;;4972488;28;20260;-62
2021/12/23 13:26:59;;;;;;;0.40;0.40;;;;;;;;;;4972289;28;20193;-62
2021/12/23 13:29:28;;;;;;;0.50;0.50;;;;;;;;;;4972525;28;20178;-62
2021/12/23 13:31:55;;;;;;;0.40;0.40;;;;;;;;;;4971632;28;20581;-60
2021/12/23 13:34:22;;;;;;;0.40;0.40;;;;;;;;;;4972206;28;20179;-62
2021/12/23 13:36:53;;;;;;;0.40;0.40;;;;;;;;;;4971052;28;20193;-62
2021/12/23 13:39:20;;;;;;;0.40;0.40;;;;;;;;;;4972496;28;20187;-62
2021/12/23 13:41:54;;;;;;;0.40;0.40;;;;;;;;;;4971625;28;20710;-62
2021/12/23 13:44:24;;;;;;;0.40;0.40;;;;;;;;;;4972498;28;20178;-62
2021/12/23 13:46:58;;;;;;;0.50;0.50;;;;;;;;;;4973606;28;20193;-62
2021/12/23 13:49:45;;;;;;;0.50;0.50;;;;;;;;;;4976210;28;20185;-62
2021/12/23 13:52:17;;;;;;;0.40;0.40;;;;;;;;;;4975438;28;20713;-62
2021/12/23 13:54:43;;;;;;;0.45;0.45;;;;;;;;;;4974704;28;20555;-62
2021/12/23 13:57:11;;;;;;;0.40;0.40;;;;;;;;;;4975750;28;20178;-62
2021/12/23 13:59:37;;;;;;;0.40;0.40;;;;;;;;;;4975967;28;20189;-62
2021/12/23 14:02:06;;;;;;;0.50;0.50;;;;;;;;;;4975023;28;20213;-61
2021/12/23 14:04:40;;;;;;;0.40;0.40;;;;;;;;;;4994757;23;20669;-62
2021/12/23 14:07:10;;;;;;;0.50;0.50;;;;;;;;;;4975277;28;20210;-63
2021/12/23 14:09:38;;;;;;;0.40;0.40;;;;;;;;;;4974440;28;20188;-64
2021/12/23 14:12:05;;;;;;;0.50;0.50;;;;;;;;;;4955869;28;20234;-62
2021/12/23 14:14:31;;;;;;;0.50;0.50;;;;;;;;;;4968237;28;20571;-59
2021/12/23 14:16:57;;;;;;;0.50;0.50;;;;;;;;;;4973980;28;20186;-60
2021/12/23 14:19:40;;;;;;;0.60;0.60;;;;;;;;;;4975527;28;20248;-62
2021/12/23 14:24:54;;;;;;;0.40;0.40;;;;;;;;;;4974177;28;20220;-61
2021/12/23 14:27:21;;;;;;;0.50;0.50;;;;;;;;;;4974482;28;20212;-64
2021/12/23 14:29:49;;;;;;;0.50;0.50;;;;;;;;;;4973569;28;20258;-61
2021/12/23 14:32:15;;;;;;;0.50;0.50;;;;;;;;;;4973926;28;20187;-64
2021/12/23 14:34:41;;;;;;;0.40;0.40;;;;;;;;;;4974864;28;20206;-59
2021/12/23 14:37:09;;;;;;;0.40;0.40;;;;;;;;;;4975062;28;20553;-62
2021/12/23 14:39:38;;;;;;;0.40;0.40;;;;;;;;;;4975047;28;20785;-62
2021/12/23 14:42:16;;;;;;;0.50;0.50;;;;;;;;;;4974303;28;20170;-62
2021/12/23 14:44:42;;;;;;;0.50;0.50;;;;;;;;;;4975024;28;20197;-61
2021/12/23 14:47:29;;;;;;;0.50;0.50;;;;;;;;;;4974720;28;20213;-62
2021/12/23 14:52:31;;;;;;;0.40;0.40;;;;;;;;;;4974434;28;20170;-62
2021/12/23 14:55:01;;;;;;;0.40;0.40;;;;;;;;;;4974766;28;20194;-62
2021/12/23 14:57:36;;;;;;;0.40;0.40;;;;;;;;;;4974750;28;20198;-62
2021/12/23 15:00:11;;;;;;;0.40;0.40;;;;;;;;;;4973979;28;20181;-62
2021/12/23 15:02:38;;;;;;;0.50;0.50;;;;;;;;;;4974672;28;20265;-62
2021/12/23 15:05:14;;;;;;;0.50;0.50;;;;;;;;;;4973166;28;20229;-61
2021/12/23 15:07:59;;;;;;;0.50;0.50;;;;;;;;;;4974262;28;20197;-60
2021/12/23 15:10:30;;;;;;;0.50;0.50;;;;;;;;;;4973395;28;20598;-62
2021/12/23 15:12:57;;;;;;;0.40;0.40;;;;;;;;;;4970131;28;20248;-60
2021/12/23 15:15:28;;;;;;;0.50;0.50;;;;;;;;;;4969685;28;20218;-62
2021/12/23 15:18:00;;;;;;;0.40;0.40;;;;;;;;;;4970696;28;20277;-62
2021/12/23 15:20:31;;;;;;;0.40;0.40;;;;;;;;;;4969158;28;20182;-62
2021/12/23 15:23:01;;;;;;;0.40;0.40;;;;;;;;;;4973822;28;20190;-62
2021/12/23 15:25:36;;;;;;;0.50;0.50;;;;;;;;;;4971098;28;20206;-64
2021/12/23 15:28:04;;;;;;;0.50;0.50;;;;;;;;;;4966506;28;20281;-63
2021/12/23 15:30:32;;;;;;;0.47;0.47;;;;;;;;;;4970599;28;20213;-62
2021/12/23 15:32:58;;;;;;;0.50;0.50;;;;;;;;;;4972383;28;20193;-62
2021/12/23 15:35:29;;;;;;;0.40;0.40;;;;;;;;;;4970675;28;20205;-63
2021/12/23 15:37:55;;;;;;;0.50;0.50;;;;;;;;;;4973600;28;20175;-62
2021/12/23 15:40:22;;;;;;;0.40;0.40;;;;;;;;;;4972126;28;20178;-58
2021/12/23 15:42:49;;;;;;;0.50;0.50;;;;;;;;;;4974035;28;20437;-62
2021/12/23 15:45:15;;;;;;;0.50;0.50;;;;;;;;;;4972011;28;20242;-63
2021/12/23 15:47:41;;;;;;;0.50;0.50;;;;;;;;;;4968705;28;20214;-63
2021/12/23 15:50:08;;;;;;;0.40;0.40;;;;;;;;;;4972304;28;20214;-64
2021/12/23 15:52:34;;;;;;;0.40;0.40;;;;;;;;;;4973639;28;20410;-62
2021/12/23 15:55:00;;;;;;;0.50;0.50;;;;;;;;;;4973413;28;20264;-62
2021/12/23 15:57:26;;;;;;;0.50;0.50;;;;;;;;;;4972755;28;20442;-63
2021/12/23 15:59:53;;;;;;;0.50;0.50;;;;;;;;;;4973236;28;20414;-63
2021/12/23 16:02:20;;;;;;;0.50;0.50;;;;;;;;;;4971954;28;20418;-63
2021/12/23 16:07:16;;;;;;;0.50;0.50;;;;;;;;;;4967415;28;20230;-62
2021/12/23 16:07:36;;;;;;;0.40;0.40;;;;;;;;;;4972854;28;20206;-62